Time;durP1;ratioP1;P1;durP2;ratioP2;P2;SDS_P1;SDS_P2;PMS_P1;PMS_P2;Temp;Humidity;BMP_temperature;BMP_pressure;BME280_temperature;BME280_humidity;BME280_pressure;Samples;Min_cycle;Max_cycle;Signal;HPM_P1;HPM_P2
2023/03/06 00:00:50;;;;;;;2.75;2.30;;;2.10;99.90;;;;;;4897688;28;96708;-28
2023/03/06 00:03:16;;;;;;;4.40;2.17;;;2.20;99.90;;;;;;4886900;28;92733;-28
2023/03/06 00:05:41;;;;;;;4.65;1.80;;;2.20;99.90;;;;;;4900468;28;92563;-29
2023/03/06 00:08:07;;;;;;;4.13;1.75;;;2.20;99.90;;;;;;4898886;28;95414;-28
2023/03/06 00:10:33;;;;;;;3.15;2.85;;;2.20;99.90;;;;;;4899822;28;94569;-28
2023/03/06 00:13:07;;;;;;;4.10;2.33;;;2.20;99.90;;;;;;4900587;28;94781;-29
2023/03/06 00:15:33;;;;;;;2.92;2.50;;;2.20;99.90;;;;;;4899528;28;92943;-29
2023/03/06 00:18:01;;;;;;;5.68;2.50;;;2.20;99.90;;;;;;4901698;28;94337;-27
2023/03/06 00:20:27;;;;;;;4.95;2.50;;;2.20;99.90;;;;;;4898667;28;96305;-30
2023/03/06 00:22:55;;;;;;;2.78;2.28;;;2.20;99.90;;;;;;4899936;28;94438;-27
2023/03/06 00:25:21;;;;;;;5.23;3.03;;;2.30;99.90;;;;;;4898156;28;94572;-30
2023/03/06 00:27:48;;;;;;;3.67;1.80;;;2.20;99.90;;;;;;4900042;28;93434;-29
2023/03/06 00:30:16;;;;;;;4.15;3.25;;;2.30;99.90;;;;;;4892379;28;93449;-27
2023/03/06 00:32:42;;;;;;;6.00;2.50;;;2.30;99.90;;;;;;4899814;28;94450;-31
2023/03/06 00:35:09;;;;;;;4.40;2.25;;;2.30;99.90;;;;;;4898943;28;93452;-30
2023/03/06 00:37:35;;;;;;;3.78;2.08;;;2.30;99.90;;;;;;4900535;28;94743;-27
2023/03/06 00:40:03;;;;;;;3.55;2.17;;;2.30;99.90;;;;;;4884123;28;93902;-34
2023/03/06 00:42:28;;;;;;;13.10;3.43;;;2.30;99.90;;;;;;4892216;28;93137;-29
2023/03/06 00:44:54;;;;;;;4.40;2.33;;;2.30;99.90;;;;;;4882292;28;92681;-28
2023/03/06 00:47:19;;;;;;;4.05;2.10;;;2.30;99.90;;;;;;4880721;28;95756;-28
2023/03/06 00:49:45;;;;;;;3.55;2.28;;;2.40;99.90;;;;;;4881593;28;96090;-28
2023/03/06 00:52:12;;;;;;;7.55;1.90;;;2.40;99.90;;;;;;4881106;28;95027;-31
2023/03/06 00:54:38;;;;;;;9.82;2.65;;;2.40;99.90;;;;;;4896168;28;95068;-29
2023/03/06 00:57:04;;;;;;;5.28;2.03;;;2.30;99.90;;;;;;4899830;28;94753;-27
2023/03/06 00:59:29;;;;;;;4.93;1.92;;;2.30;99.90;;;;;;4885067;28;94813;-29
2023/03/06 01:01:55;;;;;;;5.13;2.20;;;2.40;99.90;;;;;;4882057;28;94256;-29
2023/03/06 01:04:21;;;;;;;2.67;2.08;;;2.40;99.90;;;;;;4894409;28;93345;-29
2023/03/06 01:06:46;;;;;;;4.47;3.20;;;2.30;99.90;;;;;;4881491;28;92943;-31
2023/03/06 01:09:12;;;;;;;7.55;2.95;;;2.40;99.90;;;;;;4893323;28;95269;-31
2023/03/06 01:11:39;;;;;;;12.55;2.47;;;2.40;99.90;;;;;;4881035;28;94050;-27
2023/03/06 01:14:05;;;;;;;4.57;2.30;;;2.40;99.90;;;;;;4880847;28;92157;-29
2023/03/06 01:16:31;;;;;;;3.85;2.10;;;2.40;99.90;;;;;;4881386;28;94779;-28
2023/03/06 01:18:56;;;;;;;8.05;2.25;;;2.40;99.90;;;;;;4883409;28;94554;-30
2023/03/06 01:21:22;;;;;;;2.67;2.22;;;2.40;99.90;;;;;;4891083;28;94189;-27
2023/03/06 01:23:48;;;;;;;2.95;1.95;;;2.40;99.90;;;;;;4883993;28;92606;-30
2023/03/06 01:26:14;;;;;;;4.15;2.28;;;2.40;99.90;;;;;;4891208;28;94710;-28
2023/03/06 01:28:40;;;;;;;4.93;1.95;;;2.40;99.90;;;;;;4881431;28;94696;-32
2023/03/06 01:31:07;;;;;;;5.30;2.47;;;2.30;99.90;;;;;;4881512;28;95141;-29
2023/03/06 01:33:33;;;;;;;5.10;2.55;;;2.40;99.90;;;;;;4879696;28;94527;-29
2023/03/06 01:36:02;;;;;;;4.38;2.10;;;2.40;99.90;;;;;;4880567;28;95595;-29
2023/03/06 01:38:27;;;;;;;;;;;2.40;99.90;;;;;;4894498;28;95772;-28
2023/03/06 01:40:53;;;;;;;3.65;2.17;;;2.40;99.90;;;;;;4882417;28;93985;-29
2023/03/06 01:43:27;;;;;;;2.72;2.08;;;2.40;99.90;;;;;;4878835;28;92176;-29
2023/03/06 01:46:30;;;;;;;3.33;2.78;;;2.40;99.90;;;;;;4880598;28;95229;-27
2023/03/06 01:49:09;;;;;;;4.35;3.15;;;2.40;99.90;;;;;;4887983;28;95039;-27
2023/03/06 01:51:43;;;;;;;7.72;2.60;;;2.50;99.90;;;;;;4896429;28;94603;-27
2023/03/06 01:54:16;;;;;;;2.20;1.80;;;2.50;99.90;;;;;;4881328;28;94170;-28
2023/03/06 01:56:45;;;;;;;7.13;2.65;;;2.50;99.90;;;;;;4885872;28;95068;-29
2023/03/06 01:59:11;;;;;;;4.05;2.58;;;2.50;99.90;;;;;;4886668;28;94582;-28
2023/03/06 02:01:38;;;;;;;4.40;2.35;;;2.50;99.90;;;;;;4886813;28;93115;-28
2023/03/06 02:04:05;;;;;;;6.38;2.53;;;2.50;99.90;;;;;;4899539;28;94628;-30
2023/03/06 02:06:34;;;;;;;3.35;2.63;;;2.50;99.90;;;;;;4898527;28;94572;-27
2023/03/06 02:09:01;;;;;;;8.48;2.03;;;2.50;99.90;;;;;;4898243;28;95116;-29
2023/03/06 02:11:27;;;;;;;3.67;1.77;;;2.50;99.90;;;;;;4900260;28;92869;-30
2023/03/06 02:13:53;;;;;;;5.28;2.05;;;2.50;99.90;;;;;;4898655;28;93412;-28
2023/03/06 02:16:26;;;;;;;5.97;2.92;;;2.50;99.90;;;;;;4898310;28;94832;-32
2023/03/06 02:18:53;;;;;;;2.20;1.95;;;2.50;99.90;;;;;;4880884;28;95494;-30
2023/03/06 02:21:31;;;;;;;2.88;1.85;;;2.50;99.90;;;;;;4873959;28;95113;-31
2023/03/06 02:24:22;;;;;;;4.95;2.85;;;2.60;99.90;;;;;;4893665;28;94361;-27
2023/03/06 02:26:49;;;;;;;2.75;2.08;;;2.50;99.90;;;;;;4891487;28;95484;-27
2023/03/06 02:29:24;;;;;;;4.72;2.72;;;2.60;99.90;;;;;;4879945;28;94077;-29
2023/03/06 02:31:50;;;;;;;4.10;2.45;;;2.50;99.90;;;;;;4879799;28;93670;-28
2023/03/06 02:34:15;;;;;;;6.00;2.08;;;2.60;99.90;;;;;;4880187;28;94758;-27
2023/03/06 02:37:09;;;;;;;3.88;2.28;;;2.50;99.90;;;;;;4881785;28;95430;-29
2023/03/06 02:39:40;;;;;;;2.22;2.00;;;2.60;99.90;;;;;;4895459;28;94941;-26
2023/03/06 02:42:05;;;;;;;2.55;2.38;;;2.60;99.90;;;;;;4898733;28;93551;-29
2023/03/06 02:44:32;;;;;;;4.00;2.22;;;2.60;99.90;;;;;;4898476;28;93247;-27
2023/03/06 02:46:58;;;;;;;3.38;2.33;;;2.60;99.90;;;;;;4898778;28;94837;-27
2023/03/06 02:49:23;;;;;;;2.75;2.55;;;2.60;99.90;;;;;;4897250;28;94882;-27
2023/03/06 02:51:50;;;;;;;4.00;2.85;;;2.60;99.90;;;;;;4898575;28;94021;-29
2023/03/06 02:54:17;;;;;;;2.60;2.40;;;2.60;99.90;;;;;;4897609;28;93126;-26
2023/03/06 02:56:43;;;;;;;5.38;2.75;;;2.50;99.90;;;;;;4892040;28;94545;-29
2023/03/06 02:59:09;;;;;;;5.32;2.60;;;2.60;99.90;;;;;;4880154;28;94296;-29
2023/03/06 03:01:35;;;;;;;4.78;2.45;;;2.60;99.90;;;;;;4880573;28;92963;-30
2023/03/06 03:04:00;;;;;;;3.38;2.53;;;2.60;99.90;;;;;;4879436;28;93878;-33
2023/03/06 03:06:26;;;;;;;4.15;2.33;;;2.60;99.90;;;;;;4885453;28;95064;-29
2023/03/06 03:08:52;;;;;;;3.10;2.28;;;2.50;99.90;;;;;;4898776;28;93168;-30
2023/03/06 03:11:17;;;;;;;3.88;2.50;;;2.60;99.90;;;;;;4897151;28;94793;-28
2023/03/06 03:13:43;;;;;;;12.02;2.85;;;2.60;99.90;;;;;;4898139;28;94151;-27
2023/03/06 03:16:12;;;;;;;7.22;3.78;;;2.60;99.90;;;;;;4893960;28;95744;-31
2023/03/06 03:18:38;;;;;;;3.65;2.95;;;2.50;99.90;;;;;;4898122;28;95377;-30
2023/03/06 03:21:09;;;;;;;3.35;2.30;;;2.50;99.90;;;;;;4898081;28;92209;-27
2023/03/06 03:23:34;;;;;;;3.22;2.25;;;2.40;99.90;;;;;;4885869;28;94297;-29
2023/03/06 03:26:08;;;;;;;5.72;2.72;;;2.50;99.90;;;;;;4897872;28;94482;-32
2023/03/06 03:28:34;;;;;;;2.80;2.13;;;2.40;99.90;;;;;;4898183;28;94632;-28
2023/03/06 03:31:05;;;;;;;3.25;2.15;;;2.40;99.90;;;;;;4897798;28;95082;-31
2023/03/06 03:33:31;;;;;;;2.42;2.13;;;2.40;99.90;;;;;;4897812;28;92716;-27
2023/03/06 03:35:58;;;;;;;2.17;1.33;;;2.40;99.90;;;;;;4898095;28;94821;-30
2023/03/06 03:38:23;;;;;;;2.08;1.77;;;2.50;99.90;;;;;;4896017;28;96094;-28
2023/03/06 03:40:49;;;;;;;2.22;1.92;;;2.40;99.90;;;;;;4908143;28;94785;-28
2023/03/06 03:43:15;;;;;;;1.98;1.77;;;2.20;99.90;;;;;;4885876;28;93063;-29
2023/03/06 03:45:40;;;;;;;1.80;1.45;;;2.10;99.90;;;;;;4905827;28;94470;-29
2023/03/06 03:48:06;;;;;;;1.85;1.58;;;2.00;99.90;;;;;;4897190;28;94511;-28
2023/03/06 03:50:32;;;;;;;1.50;1.40;;;1.90;99.90;;;;;;4897773;28;92914;-28
2023/03/06 03:52:58;;;;;;;1.80;1.60;;;1.80;99.90;;;;;;4897018;28;95027;-31
2023/03/06 03:55:23;;;;;;;2.70;2.30;;;1.60;99.90;;;;;;4905721;28;94745;-27
2023/03/06 03:57:49;;;;;;;1.98;1.55;;;1.60;99.90;;;;;;4899756;28;95244;-29
2023/03/06 04:00:15;;;;;;;1.67;1.38;;;1.50;99.90;;;;;;4897872;28;94622;-28
2023/03/06 04:02:44;;;;;;;1.70;1.58;;;1.40;99.90;;;;;;4897102;28;92167;-27
2023/03/06 04:05:13;;;;;;;2.08;1.30;;;1.50;99.90;;;;;;4897070;28;95811;-27
2023/03/06 04:07:39;;;;;;;2.60;1.92;;;1.40;99.90;;;;;;4896679;28;94908;-29
2023/03/06 04:10:06;;;;;;;2.65;1.63;;;1.40;99.90;;;;;;4897297;28;94135;-30
2023/03/06 04:12:32;;;;;;;2.50;1.83;;;1.30;99.90;;;;;;4896840;28;93646;-28
2023/03/06 04:14:58;;;;;;;5.13;2.42;;;1.30;99.90;;;;;;4897003;28;94750;-28
2023/03/06 04:17:24;;;;;;;2.08;1.95;;;1.30;99.90;;;;;;4881258;28;96333;-28
2023/03/06 04:19:50;;;;;;;2.72;2.38;;;1.30;99.90;;;;;;4904329;28;93879;-28
2023/03/06 04:22:16;;;;;;;1.77;1.55;;;1.30;99.90;;;;;;4886614;28;93887;-29
2023/03/06 04:24:41;;;;;;;2.72;1.70;;;1.20;99.90;;;;;;4883259;28;94841;-27
2023/03/06 04:27:07;;;;;;;2.08;1.98;;;1.20;99.90;;;;;;4908969;28;94363;-26
2023/03/06 04:29:32;;;;;;;2.92;2.33;;;1.20;99.90;;;;;;4898898;28;95194;-29
2023/03/06 04:31:58;;;;;;;2.67;2.13;;;1.10;99.90;;;;;;4896899;28;93902;-28
2023/03/06 04:34:24;;;;;;;2.92;1.70;;;1.20;99.90;;;;;;4896418;28;94874;-29
2023/03/06 04:36:49;;;;;;;1.73;1.55;;;1.20;99.90;;;;;;4896868;28;93594;-29
2023/03/06 04:39:15;;;;;;;2.95;2.03;;;1.20;99.90;;;;;;4897479;28;94703;-29
2023/03/06 04:41:41;;;;;;;1.48;1.27;;;1.20;99.90;;;;;;4896961;28;93366;-28
2023/03/06 04:44:07;;;;;;;2.10;1.98;;;1.20;99.90;;;;;;4906887;28;94863;-29
2023/03/06 04:46:34;;;;;;;1.33;1.23;;;1.20;99.90;;;;;;4899189;28;94093;-28
2023/03/06 04:48:59;;;;;;;2.28;1.63;;;1.10;99.90;;;;;;4898930;28;92155;-28
2023/03/06 04:51:25;;;;;;;1.73;1.08;;;1.20;99.90;;;;;;4887162;28;92679;-27
2023/03/06 04:53:51;;;;;;;2.10;1.95;;;1.20;99.90;;;;;;4900041;28;96706;-28
2023/03/06 04:56:17;;;;;;;2.35;1.42;;;1.10;99.90;;;;;;4898674;28;95292;-29
2023/03/06 04:58:43;;;;;;;1.30;1.20;;;1.10;99.90;;;;;;4900660;28;94340;-31
2023/03/06 05:01:08;;;;;;;2.13;1.92;;;1.10;99.90;;;;;;4898441;28;93139;-29
2023/03/06 05:03:34;;;;;;;1.75;1.40;;;1.10;99.90;;;;;;4899352;28;94995;-28
2023/03/06 05:06:00;;;;;;;1.83;1.73;;;1.10;99.90;;;;;;4898982;28;93610;-31
2023/03/06 05:08:25;;;;;;;1.70;1.60;;;1.10;99.90;;;;;;4899644;28;93784;-29
2023/03/06 05:10:57;;;;;;;3.03;1.70;;;1.10;99.90;;;;;;4899078;28;92484;-26
2023/03/06 05:13:23;;;;;;;1.05;1.00;;;1.00;99.90;;;;;;4899188;28;93473;-30
2023/03/06 05:15:49;;;;;;;1.35;1.23;;;1.00;99.90;;;;;;4899759;28;94671;-30
2023/03/06 05:18:14;;;;;;;2.55;2.05;;;1.10;99.90;;;;;;4899350;28;94537;-30
2023/03/06 05:20:40;;;;;;;2.00;1.25;;;1.10;99.90;;;;;;4899702;28;93139;-31
2023/03/06 05:23:06;;;;;;;2.08;1.42;;;1.10;99.90;;;;;;4882235;28;95492;-28
2023/03/06 05:25:31;;;;;;;2.38;1.48;;;1.20;99.90;;;;;;4881281;28;95085;-29
2023/03/06 05:27:57;;;;;;;2.05;1.90;;;1.20;99.90;;;;;;4881691;28;93593;-28
2023/03/06 05:30:24;;;;;;;1.88;1.25;;;1.10;99.90;;;;;;4863642;28;93029;-26
2023/03/06 05:32:50;;;;;;;2.03;1.35;;;1.20;99.90;;;;;;4881183;28;94547;-28
2023/03/06 05:35:18;;;;;;;1.23;1.10;;;1.20;99.90;;;;;;4880747;28;94282;-27
2023/03/06 05:37:44;;;;;;;1.83;1.67;;;1.10;99.90;;;;;;4899258;28;94276;-30
2023/03/06 05:40:11;;;;;;;3.20;1.67;;;1.20;99.90;;;;;;4882451;28;92868;-29
2023/03/06 05:42:36;;;;;;;1.90;1.52;;;1.10;99.90;;;;;;4880127;28;96053;-29
2023/03/06 05:45:03;;;;;;;2.47;1.10;;;1.20;99.90;;;;;;4879743;28;94834;-28
2023/03/06 05:47:30;;;;;;;2.10;1.10;;;1.20;99.90;;;;;;4881516;28;94175;-26
2023/03/06 05:49:55;;;;;;;2.85;1.13;;;1.10;99.90;;;;;;4881274;28;93808;-28
2023/03/06 05:52:21;;;;;;;1.67;1.20;;;1.10;99.90;;;;;;4880958;28;95158;-27
2023/03/06 05:54:50;;;;;;;1.55;1.33;;;1.10;99.90;;;;;;4881557;28;94681;-29
2023/03/06 05:57:17;;;;;;;1.77;1.67;;;1.10;99.90;;;;;;4881580;28;94566;-28
2023/03/06 05:59:43;;;;;;;2.50;1.40;;;1.10;99.90;;;;;;4886584;28;92338;-30
2023/03/06 06:02:08;;;;;;;1.30;1.20;;;1.10;99.90;;;;;;4885855;28;94603;-28
2023/03/06 06:04:34;;;;;;;1.33;1.20;;;1.10;99.90;;;;;;4893082;28;94358;-28
2023/03/06 06:07:00;;;;;;;2.03;1.30;;;1.10;99.90;;;;;;4880389;28;94538;-28
2023/03/06 06:09:27;;;;;;;1.20;1.10;;;1.10;99.90;;;;;;4886399;28;94152;-28
2023/03/06 06:11:54;;;;;;;1.85;1.38;;;1.10;99.90;;;;;;4897579;28;96876;-30
2023/03/06 06:14:20;;;;;;;1.70;1.60;;;1.10;99.90;;;;;;4898410;28;94550;-28
2023/03/06 06:16:46;;;;;;;2.15;1.88;;;1.00;99.90;;;;;;4899733;28;93480;-28
2023/03/06 06:19:17;;;;;;;2.53;1.50;;;1.10;99.90;;;;;;4868885;28;93290;-30
2023/03/06 06:21:45;;;;;;;1.38;1.20;;;1.10;99.90;;;;;;4892535;28;95325;-29
2023/03/06 06:24:11;;;;;;;1.55;1.45;;;1.10;99.90;;;;;;4893058;28;94284;-32
2023/03/06 06:26:37;;;;;;;5.85;1.40;;;1.10;99.90;;;;;;4880500;28;93596;-27
2023/03/06 06:29:03;;;;;;;2.17;1.98;;;1.10;99.90;;;;;;4880510;28;92292;-30
2023/03/06 06:31:29;;;;;;;1.42;1.33;;;1.10;99.90;;;;;;4879350;28;96347;-26
2023/03/06 06:33:54;;;;;;;1.88;1.00;;;1.10;99.90;;;;;;4879997;28;94882;-29
2023/03/06 06:36:20;;;;;;;1.65;1.55;;;1.10;99.90;;;;;;4879890;28;93991;-30
2023/03/06 06:38:47;;;;;;;1.38;0.90;;;1.10;99.90;;;;;;4899735;28;92666;-27
2023/03/06 06:41:13;;;;;;;3.75;1.85;;;1.10;99.90;;;;;;4898440;28;95274;-27
2023/03/06 06:43:38;;;;;;;3.42;2.17;;;1.10;99.90;;;;;;4898388;28;94808;-26
2023/03/06 06:46:04;;;;;;;1.95;1.40;;;1.10;99.90;;;;;;4898472;28;94256;-29
2023/03/06 06:48:30;;;;;;;2.25;1.55;;;1.10;99.90;;;;;;4899174;28;91837;-29
2023/03/06 06:50:57;;;;;;;5.28;2.55;;;1.10;99.90;;;;;;4880657;28;94808;-28
2023/03/06 06:53:23;;;;;;;4.28;1.67;;;1.10;99.90;;;;;;4896143;28;94583;-28
2023/03/06 06:55:48;;;;;;;1.40;1.13;;;1.10;99.90;;;;;;4883281;28;93182;-28
2023/03/06 06:58:14;;;;;;;2.20;2.00;;;1.10;99.90;;;;;;4888558;28;93893;-29
2023/03/06 07:00:40;;;;;;;2.03;1.58;;;1.10;99.90;;;;;;4890588;28;94563;-28
2023/03/06 07:03:06;;;;;;;2.92;1.75;;;1.10;99.90;;;;;;4894359;28;94642;-32
2023/03/06 07:05:32;;;;;;;1.48;1.23;;;1.10;99.90;;;;;;4891055;28;93045;-26
2023/03/06 07:07:58;;;;;;;2.15;1.15;;;1.20;99.90;;;;;;4894278;28;94194;-29
2023/03/06 07:10:23;;;;;;;2.33;1.63;;;1.20;99.90;;;;;;4889665;28;95256;-28
2023/03/06 07:12:49;;;;;;;1.42;1.30;;;1.30;99.90;;;;;;4894317;28;93646;-28
2023/03/06 07:15:16;;;;;;;2.80;1.75;;;1.30;99.90;;;;;;4890318;28;93599;-26
2023/03/06 07:17:41;;;;;;;1.92;1.50;;;1.40;99.90;;;;;;4895397;28;94609;-27
2023/03/06 07:20:09;;;;;;;1.65;1.55;;;1.50;99.90;;;;;;4897002;28;96121;-27
2023/03/06 07:22:35;;;;;;;1.83;1.30;;;1.50;99.90;;;;;;4884650;28;93512;-29
2023/03/06 07:25:02;;;;;;;1.95;1.30;;;1.60;99.90;;;;;;4880131;28;93140;-32
2023/03/06 07:27:27;;;;;;;1.90;1.10;;;1.60;99.90;;;;;;4878972;28;93091;-30
2023/03/06 07:29:53;;;;;;;1.65;1.55;;;1.60;99.90;;;;;;4886588;28;94739;-30
2023/03/06 07:32:19;;;;;;;2.78;1.73;;;1.60;99.90;;;;;;4897591;28;94449;-27
2023/03/06 07:34:45;;;;;;;2.03;1.73;;;1.60;99.90;;;;;;4898436;28;93971;-27
2023/03/06 07:37:11;;;;;;;1.42;1.33;;;1.70;99.90;;;;;;4885952;28;92715;-28
2023/03/06 07:39:37;;;;;;;1.70;1.23;;;1.70;99.90;;;;;;4892109;28;94810;-27
2023/03/06 07:42:03;;;;;;;1.75;1.65;;;1.70;99.90;;;;;;4896226;28;94653;-29
2023/03/06 07:44:28;;;;;;;1.48;1.38;;;1.70;99.90;;;;;;4894200;28;93349;-29
2023/03/06 07:46:54;;;;;;;1.27;1.17;;;1.70;99.90;;;;;;4889375;28;94881;-28
2023/03/06 07:49:20;;;;;;;3.08;1.42;;;1.70;99.90;;;;;;4879453;28;94142;-28
2023/03/06 07:51:46;;;;;;;4.30;1.85;;;1.80;99.90;;;;;;4878792;28;94605;-28
2023/03/06 07:54:11;;;;;;;2.15;1.77;;;1.90;99.90;;;;;;4879926;28;93572;-30
2023/03/06 07:56:37;;;;;;;3.05;1.90;;;2.00;99.90;;;;;;4879637;28;92684;-28
2023/03/06 07:59:03;;;;;;;3.35;1.98;;;2.10;99.90;;;;;;4878506;28;95191;-28
2023/03/06 08:01:29;;;;;;;2.25;1.65;;;2.20;99.90;;;;;;4879495;28;94379;-30
2023/03/06 08:03:54;;;;;;;2.25;2.05;;;2.40;99.90;;;;;;4879204;28;92601;-29
2023/03/06 08:06:25;;;;;;;1.70;1.60;;;2.50;99.90;;;;;;4879562;28;94188;-27
2023/03/06 08:08:52;;;;;;;3.90;1.40;;;2.60;99.90;;;;;;4891266;28;95574;-30
2023/03/06 08:11:21;;;;;;;11.20;1.50;;;2.60;99.90;;;;;;4879328;28;96183;-27
2023/03/06 08:13:47;;;;;;;3.08;1.20;;;2.70;99.90;;;;;;4880353;28;93231;-27
2023/03/06 08:16:14;;;;;;;4.57;1.17;;;2.80;99.90;;;;;;4878516;28;93240;-29
2023/03/06 08:18:40;;;;;;;2.25;1.67;;;2.80;99.90;;;;;;4878516;28;94559;-26
2023/03/06 08:21:12;;;;;;;1.95;1.77;;;2.90;99.90;;;;;;4891048;28;94603;-27
2023/03/06 08:23:38;;;;;;;2.08;1.33;;;3.10;99.90;;;;;;4888641;28;94541;-29
2023/03/06 08:26:06;;;;;;;5.40;1.05;;;3.20;99.90;;;;;;4898655;28;93091;-28
2023/03/06 08:28:32;;;;;;;2.25;1.67;;;3.30;99.90;;;;;;4891343;28;94831;-27
2023/03/06 08:31:06;;;;;;;1.90;1.73;;;3.30;99.90;;;;;;4900092;28;94565;-31
2023/03/06 08:33:31;;;;;;;1.83;1.15;;;3.40;99.90;;;;;;4882777;28;94154;-26
2023/03/06 08:35:57;;;;;;;1.85;1.75;;;3.50;99.90;;;;;;4900306;28;93339;-29
2023/03/06 08:38:22;;;;;;;1.73;1.63;;;3.70;99.90;;;;;;4896711;28;94694;-28
2023/03/06 08:40:48;;;;;;;1.23;1.13;;;3.90;99.90;;;;;;4882117;28;94729;-27
2023/03/06 08:43:13;;;;;;;1.70;1.42;;;4.00;99.90;;;;;;4885467;28;93209;-26
2023/03/06 08:45:39;;;;;;;2.28;1.65;;;4.30;99.90;;;;;;4882262;28;93218;-26
2023/03/06 08:48:05;;;;;;;1.65;1.45;;;4.50;99.90;;;;;;4900048;28;94715;-28
2023/03/06 08:50:30;;;;;;;2.05;1.63;;;4.60;99.90;;;;;;4900073;28;92620;-26
2023/03/06 08:52:57;;;;;;;2.47;1.38;;;4.80;99.90;;;;;;4886293;28;93561;-31
2023/03/06 08:55:23;;;;;;;2.67;2.05;;;4.80;99.90;;;;;;4864356;28;93116;-29
2023/03/06 08:57:48;;;;;;;2.00;1.25;;;4.60;99.90;;;;;;4882447;28;95701;-29
2023/03/06 09:00:14;;;;;;;2.55;2.30;;;4.90;99.90;;;;;;4887642;28;95719;-29
2023/03/06 09:02:40;;;;;;;2.35;1.50;;;5.00;99.90;;;;;;4875231;28;94138;-33
2023/03/06 09:05:07;;;;;;;2.42;1.15;;;5.20;99.90;;;;;;4883946;28;94311;-32
2023/03/06 09:07:34;;;;;;;2.58;1.38;;;5.30;99.90;;;;;;4885661;28;94995;-28
2023/03/06 09:10:00;;;;;;;1.65;1.13;;;5.50;99.90;;;;;;4886005;28;94228;-29
2023/03/06 09:12:25;;;;;;;2.67;1.40;;;5.60;99.90;;;;;;4887743;28;94584;-31
2023/03/06 09:14:51;;;;;;;1.42;1.05;;;5.80;99.90;;;;;;4893421;28;91872;-29
2023/03/06 09:17:17;;;;;;;1.83;1.40;;;6.00;99.90;;;;;;4886454;28;95662;-28
2023/03/06 09:19:42;;;;;;;2.38;1.50;;;6.10;99.90;;;;;;4898426;28;94630;-28
2023/03/06 09:22:08;;;;;;;2.50;1.67;;;6.20;99.90;;;;;;4889850;28;95152;-29
2023/03/06 09:24:33;;;;;;;2.35;1.92;;;6.20;99.90;;;;;;4884656;28;94033;-30
2023/03/06 09:26:59;;;;;;;1.55;1.38;;;6.40;99.90;;;;;;4878487;28;94784;-31
2023/03/06 09:29:25;;;;;;;2.28;2.05;;;6.10;99.90;;;;;;4896943;28;94724;-29
2023/03/06 09:31:50;;;;;;;1.55;1.45;;;6.30;99.90;;;;;;4900262;28;94353;-30
2023/03/06 09:34:16;;;;;;;2.40;1.58;;;6.50;99.90;;;;;;4898043;28;93561;-30
2023/03/06 09:36:42;;;;;;;4.90;2.25;;;6.50;99.90;;;;;;4899594;28;94944;-30
2023/03/06 09:39:08;;;;;;;1.42;1.33;;;6.10;99.90;;;;;;4890643;28;94617;-28
2023/03/06 09:41:39;;;;;;;2.00;1.75;;;6.00;99.90;;;;;;4884299;28;92242;-31
2023/03/06 09:44:13;;;;;;;5.25;2.95;;;5.90;99.90;;;;;;4899082;28;92531;-30
2023/03/06 09:46:59;;;;;;;1.27;1.17;;;5.70;99.90;;;;;;4898214;28;96072;-28
2023/03/06 09:49:47;;;;;;;1.70;1.10;;;5.70;99.90;;;;;;4881647;28;95875;-30
2023/03/06 09:52:15;;;;;;;1.70;1.60;;;5.80;99.90;;;;;;4899353;28;93510;-28
2023/03/06 09:54:45;;;;;;;;;;;5.90;99.90;;;;;;4898134;28;92308;-27
2023/03/06 09:57:22;;;;;;;;;;;5.90;99.90;;;;;;4899278;28;94604;-27
2023/03/06 09:59:50;;;;;;;;;;;5.90;99.90;;;;;;4897311;28;94211;-31
2023/03/06 10:02:18;;;;;;;;;;;6.00;99.90;;;;;;4898789;28;92855;-28
2023/03/06 10:04:47;;;;;;;;;;;6.00;99.90;;;;;;4907126;28;94053;-30
2023/03/06 10:07:24;;;;;;;;;;;6.00;99.90;;;;;;4900929;28;94302;-28
2023/03/06 10:09:52;;;;;;;;;;;6.00;99.90;;;;;;4899553;28;93852;-30
2023/03/06 10:12:20;;;;;;;;;;;6.10;99.90;;;;;;4897817;28;95427;-29
2023/03/06 10:14:52;;;;;;;;;;;6.30;99.90;;;;;;4899916;28;92186;-27
2023/03/06 10:17:19;;;;;;;;;;;6.40;99.90;;;;;;4897069;28;94396;-30
2023/03/06 10:19:46;;;;;;;;;;;6.30;99.90;;;;;;4899458;28;94716;-30
2023/03/06 10:22:27;;;;;;;;;;;6.60;99.90;;;;;;4895079;28;94166;-29
2023/03/06 10:24:56;;;;;;;;;;;6.70;99.90;;;;;;4883913;28;92956;-28
2023/03/06 10:27:32;;;;;;;;;;;7.00;99.90;;;;;;4894934;28;94769;-30
2023/03/06 10:30:00;;;;;;;;;;;7.20;99.90;;;;;;4890245;28;93222;-30
2023/03/06 10:32:28;;;;;;;;;;;7.30;99.90;;;;;;4892989;28;92205;-31
2023/03/06 10:34:56;;;;;;;;;;;7.00;99.90;;;;;;4888769;28;93344;-28
2023/03/06 10:37:21;;;;;;;;;;;7.20;99.90;;;;;;4879478;28;95676;-29
2023/03/06 10:39:53;;;;;;;;;;;7.10;99.90;;;;;;4882025;28;94829;-30
2023/03/06 10:42:19;;;;;;;;;;;7.00;99.90;;;;;;4882478;28;93988;-28
2023/03/06 10:44:44;;;;;;;;;;;7.10;99.90;;;;;;4884050;28;92246;-31
2023/03/06 10:47:27;;;;;;;;;;;7.30;99.90;;;;;;4891502;28;94482;-27
2023/03/06 10:49:57;;;;;;;;;;;7.50;99.90;;;;;;4882328;28;95338;-31
2023/03/06 10:52:28;;;;;;;;;;;7.70;99.90;;;;;;4882066;28;93602;-29
2023/03/06 10:55:11;;;;;;;;;;;7.70;99.90;;;;;;4882267;28;92916;-31
2023/03/06 10:57:36;;;;;;;;;;;7.20;99.90;;;;;;4883172;28;95891;-30
2023/03/06 11:00:07;;;;;;;;;;;7.10;99.90;;;;;;4881658;28;94601;-29
2023/03/06 11:02:35;;;;;;;;;;;6.90;99.90;;;;;;4884640;28;93499;-30
2023/03/06 11:05:02;;;;;;;;;;;6.90;99.90;;;;;;4884354;28;93312;-33
2023/03/06 11:07:32;;;;;;;;;;;6.40;99.90;;;;;;4887533;28;94214;-31
2023/03/06 11:09:57;;;;;;;;;;;6.70;99.90;;;;;;4901902;28;94741;-30
2023/03/06 11:12:27;;;;;;;;;;;6.70;99.90;;;;;;4885662;28;92375;-27
2023/03/06 11:15:05;;;;;;;;;;;6.70;99.90;;;;;;4882350;28;92639;-32
2023/03/06 11:17:32;;;;;;;;;;;7.10;99.90;;;;;;4884414;28;94331;-28
2023/03/06 11:20:14;;;;;;;;;;;7.20;99.90;;;;;;4892152;28;96559;-30
2023/03/06 11:22:42;;;;;;;;;;;7.40;99.90;;;;;;4886660;28;94757;-31
2023/03/06 11:25:10;;;;;;;;;;;7.30;92.90;;;;;;4899764;28;93580;-31
2023/03/06 11:27:41;;;;;;;;;;;7.70;99.90;;;;;;4898204;28;96059;-29
2023/03/06 11:30:17;;;;;;;;;;;7.90;99.90;;;;;;4900210;28;95357;-31
2023/03/06 11:32:46;;;;;;;;;;;8.00;99.90;;;;;;4879077;28;92462;-32
2023/03/06 11:35:14;;;;;;;;;;;8.30;99.90;;;;;;4880465;28;93396;-29
2023/03/06 11:37:44;;;;;;;;;;;8.10;88.20;;;;;;4891082;28;95007;-30
2023/03/06 11:40:10;;;;;;;;;;;7.80;99.50;;;;;;4887373;28;95186;-31
2023/03/06 11:43:01;;;;;;;;;;;7.60;99.90;;;;;;4893526;28;93960;-29
2023/03/06 11:45:30;;;;;;;;;;;7.60;99.90;;;;;;4933134;23;93312;-32
2023/03/06 11:48:19;;;;;;;;;;;7.40;98.90;;;;;;4918646;28;94199;-31
2023/03/06 11:50:47;;;;;;;;;;;7.20;99.90;;;;;;4919912;28;94184;-29
2023/03/06 11:53:33;;;;;;;;;;;7.30;99.90;;;;;;4919088;28;94985;-29
2023/03/06 11:55:58;;;;;;;;;;;7.40;99.90;;;;;;4908954;28;92347;-30
2023/03/06 11:58:59;;;;;;;;;;;7.50;90.90;;;;;;4920229;28;94476;-31
2023/03/06 12:01:31;;;;;;;;;;;7.40;99.90;;;;;;4857302;28;95047;-28
2023/03/06 12:04:03;;;;;;;;;;;7.40;99.90;;;;;;4906689;28;94162;-28
2023/03/06 12:06:31;;;;;;;;;;;7.00;99.90;;;;;;4917652;28;93239;-30
2023/03/06 12:09:13;;;;;;;;;;;6.90;99.90;;;;;;4926584;28;95064;-29
2023/03/06 12:11:56;;;;;;;;;;;6.90;99.90;;;;;;4924521;28;93615;-32
2023/03/06 12:14:29;;;;;;;;;;;6.80;99.90;;;;;;4916071;28;93083;-29
2023/03/06 12:17:07;;;;;;;;;;;6.70;99.90;;;;;;4920276;28;93529;-29
2023/03/06 12:19:33;;;;;;;;;;;6.70;90.00;;;;;;4926443;28;95638;-30
2023/03/06 12:22:14;;;;;;;;;;;6.70;89.70;;;;;;4919917;28;94978;-29
2023/03/06 12:24:58;;;;;;;;;;;6.90;99.90;;;;;;4920529;28;94540;-29
2023/03/06 12:27:27;;;;;;;;;;;6.80;99.90;;;;;;4919392;28;95780;-31
2023/03/06 12:30:02;;;;;;;;;;;6.90;92.40;;;;;;4919898;28;94154;-32
2023/03/06 12:32:37;;;;;;;;;;;7.10;93.50;;;;;;4919342;28;95895;-29
2023/03/06 12:35:16;;;;;;;;;;;7.20;99.90;;;;;;4919589;28;94199;-31
2023/03/06 12:37:41;;;;;;;;;;;7.30;99.90;;;;;;4918615;28;94188;-32
2023/03/06 12:40:17;;;;;;;;;;;7.30;99.90;;;;;;4918921;28;94770;-29
2023/03/06 12:42:46;;;;;;;;;;;7.30;99.90;;;;;;4919775;28;94152;-31
2023/03/06 12:45:14;;;;;;;;;;;7.20;99.90;;;;;;4918493;28;95981;-27
2023/03/06 12:47:41;;;;;;;;;;;7.20;97.10;;;;;;4918966;28;93664;-32
2023/03/06 12:50:36;;;;;;;;;;;7.30;98.00;;;;;;4920090;28;95093;-28
2023/03/06 12:53:03;;;;;;;;;;;7.20;86.00;;;;;;4890024;28;94324;-29
2023/03/06 12:55:35;;;;;;;;;;;7.20;99.90;;;;;;4918102;28;94607;-29
2023/03/06 12:58:19;;;;;;;;;;;7.20;99.90;;;;;;4919111;28;93751;-32
2023/03/06 13:00:57;;;;;;;;;;;7.20;99.90;;;;;;4915040;28;94528;-32
2023/03/06 13:03:23;;;;;;;;;;;7.20;99.90;;;;;;4915266;28;93646;-32
2023/03/06 13:05:51;;;;;;;;;;;7.30;99.90;;;;;;4920222;28;92712;-30
2023/03/06 13:08:29;;;;;;;;;;;7.30;99.90;;;;;;4918073;28;92995;-32
2023/03/06 13:11:20;;;;;;;;;;;7.30;99.90;;;;;;4917583;28;95926;-30
2023/03/06 13:13:47;;;;;;;;;;;7.20;99.90;;;;;;4885396;28;94530;-28
2023/03/06 13:16:12;;;;;;;;;;;7.20;99.90;;;;;;4919346;28;93273;-30
2023/03/06 13:18:40;;;;;;;;;;;7.10;99.90;;;;;;4919548;28;93918;-32
2023/03/06 13:21:24;;;;;;;;;;;7.20;99.90;;;;;;4919037;28;93601;-28
2023/03/06 13:23:50;;;;;;;;;;;7.10;99.90;;;;;;4918630;28;94335;-28
2023/03/06 13:26:25;;;;;;;;;;;6.80;97.10;;;;;;4918717;28;94358;-31